Time;durP1;ratioP1;P1;durP2;ratioP2;P2;SDS_P1;SDS_P2;PMS_P1;PMS_P2;Temp;Humidity;BMP_temperature;BMP_pressure;BME280_temperature;BME280_humidity;BME280_pressure;Samples;Min_cycle;Max_cycle;Signal;HPM_P1;HPM_P2
2024/01/25 00:02:17;;;;;;;;;;;;;;;2.50;96.50;99171.31;5054934;28;19916;-77
2024/01/25 00:04:42;;;;;;;;;;;;;;;3.35;91.44;99180.41;5059707;28;20061;-77
2024/01/25 00:07:09;;;;;;;;;;;;;;;3.39;89.50;99178.50;5055107;28;20386;-77
2024/01/25 00:09:34;;;;;;;;;;;;;;;3.47;86.66;99171.94;5067888;28;19973;-77
2024/01/25 00:12:00;;;;;;;;;;;;;;;3.68;83.64;99161.19;5035012;28;20435;-76
2024/01/25 00:14:25;;;;;;;;;;;;;;;3.69;83.68;99168.22;5065981;28;19913;-78
2024/01/25 00:16:51;;;;;;;;;;;;;;;3.67;83.66;99167.81;5043070;28;19916;-78
2024/01/25 00:19:16;;;;;;;;;;;;;;;3.49;85.97;99161.44;5032986;28;19924;-78
2024/01/25 00:21:43;;;;;;;;;;;;;;;3.76;84.58;99171.00;5042653;28;19909;-76
2024/01/25 00:24:08;;;;;;;;;;;;;;;4.22;83.75;99174.03;5034357;28;20293;-76
2024/01/25 00:26:33;;;;;;;;;;;;;;;4.36;82.72;99176.06;5032403;28;19920;-77
2024/01/25 00:28:59;;;;;;;;;;;;;;;4.55;82.69;99172.25;5035936;28;19931;-77
2024/01/25 00:31:24;;;;;;;;;;;;;;;4.87;79.92;99179.41;5040997;28;19936;-79
2024/01/25 00:33:49;;;;;;;;;;;;;;;5.14;77.34;99179.88;5031075;28;20011;-78
2024/01/25 00:36:15;;;;;;;;;;;;;;;5.28;76.64;99168.16;5019922;28;19909;-77
2024/01/25 00:38:40;;;;;;;;;;;;;;;5.23;76.37;99166.59;5039300;28;20000;-77
2024/01/25 00:41:08;;;;;;;;;;;;;;;5.35;76.33;99170.91;5034383;28;19913;-77
2024/01/25 00:43:33;;;;;;;;;;;;;;;5.23;78.52;99172.06;5032331;28;19913;-77
2024/01/25 00:45:59;;;;;;;;;;;;;;;5.29;77.83;99175.19;5032029;28;19913;-77
2024/01/25 00:48:24;;;;;;;;;;;;;;;5.29;78.22;99166.97;5032148;28;19916;-77
2024/01/25 00:50:50;;;;;;;;;;;;;;;5.40;75.97;99162.28;5031007;28;19909;-77
2024/01/25 00:53:15;;;;;;;;;;;;;;;5.51;74.17;99163.06;5030668;28;19909;-78
2024/01/25 00:55:41;;;;;;;;;;;;;;;5.56;74.39;99146.25;5030246;28;19916;-78
2024/01/25 00:58:06;;;;;;;;;;;;;;;5.66;74.23;99140.00;5031979;28;19964;-79
2024/01/25 01:00:32;;;;;;;;;;;;;;;5.76;73.05;99132.91;5030311;28;19917;-78
2024/01/25 01:02:58;;;;;;;;;;;;;;;5.88;73.06;99127.06;5032199;28;19919;-78
2024/01/25 01:05:25;;;;;;;;;;;;;;;5.85;73.31;99129.75;5032559;28;20000;-78
2024/01/25 01:07:50;;;;;;;;;;;;;;;5.86;73.94;99131.31;5038664;28;19908;-77
2024/01/25 01:10:15;;;;;;;;;;;;;;;5.74;74.28;99127.81;5042358;28;19913;-77
2024/01/25 01:12:41;;;;;;;;;;;;;;;5.70;74.31;99127.06;5038518;28;19917;-78
2024/01/25 01:15:06;;;;;;;;;;;;;;;5.69;73.93;99111.78;5039921;28;19909;-78
2024/01/25 01:17:32;;;;;;;;;;;;;;;5.72;73.29;99107.47;5055938;28;19916;-78
2024/01/25 01:19:57;;;;;;;;;;;;;;;5.72;72.35;99102.78;5071499;28;19917;-77
2024/01/25 01:22:22;;;;;;;;;;;;;;;5.81;72.19;99096.88;5050412;28;19953;-79
2024/01/25 01:24:47;;;;;;;;;;;;;;;5.88;72.11;99088.66;5034140;28;20025;-78
2024/01/25 01:27:13;;;;;;;;;;;;;;;5.87;73.27;99095.31;5036631;28;19954;-78
2024/01/25 01:29:38;;;;;;;;;;;;;;;5.92;72.71;99092.19;5043876;28;20391;-78
2024/01/25 01:32:03;;;;;;;;;;;;;;;5.89;75.08;99086.72;5036357;28;19909;-79
2024/01/25 01:34:29;;;;;;;;;;;;;;;5.96;74.06;99075.72;5043852;28;19912;-77
2024/01/25 01:36:54;;;;;;;;;;;;;;;6.16;70.83;99074.06;5046679;28;19916;-78
2024/01/25 01:39:19;;;;;;;;;;;;;;;6.24;69.90;99074.84;5032919;28;19955;-78
2024/01/25 01:41:51;;;;;;;;;;;;;;;6.17;71.05;99064.66;5036375;28;20395;-77
2024/01/25 01:44:16;;;;;;;;;;;;;;;6.28;70.36;99065.41;5053483;28;20265;-78
2024/01/25 01:46:42;;;;;;;;;;;;;;;6.23;72.45;99067.78;5036970;28;19928;-79
2024/01/25 01:49:11;;;;;;;;;;;;;;;6.44;70.76;99068.50;5043459;28;19916;-78
2024/01/25 01:51:37;;;;;;;;;;;;;;;6.42;70.51;99070.84;5049794;28;20369;-78
2024/01/25 01:54:03;;;;;;;;;;;;;;;6.43;70.42;99061.44;5051086;28;19919;-77
2024/01/25 01:56:31;;;;;;;;;;;;;;;6.42;70.52;99059.88;5064632;28;19912;-78
2024/01/25 01:59:00;;;;;;;;;;;;;;;6.35;71.29;99061.84;5061615;28;19909;-78
2024/01/25 02:01:26;;;;;;;;;;;;;;;6.25;72.27;99049.75;5039699;28;19920;-79
2024/01/25 02:03:51;;;;;;;;;;;;;;;6.20;73.04;99050.19;5053231;28;20385;-78
2024/01/25 02:06:16;;;;;;;;;;;;;;;6.23;74.63;99040.34;5066876;28;20479;-78
2024/01/25 02:08:42;;;;;;;;;;;;;;;6.21;73.87;99042.72;5044012;28;19916;-77
2024/01/25 02:11:08;;;;;;;;;;;;;;;6.21;74.71;99035.25;5057574;28;19908;-78
2024/01/25 02:13:34;;;;;;;;;;;;;;;6.25;74.48;99025.06;5060372;28;19913;-78
2024/01/25 02:16:00;;;;;;;;;;;;;;;6.18;75.16;99022.34;5050949;28;20312;-78
2024/01/25 02:18:26;;;;;;;;;;;;;;;6.05;76.24;99022.00;5032761;28;19963;-78
2024/01/25 02:20:51;;;;;;;;;;;;;;;6.03;76.99;99007.13;5049782;28;20011;-78
2024/01/25 02:23:16;;;;;;;;;;;;;;;5.93;77.60;98992.28;5060630;28;20423;-78
2024/01/25 02:25:42;;;;;;;;;;;;;;;5.80;77.61;98982.13;5050848;28;19912;-78
2024/01/25 02:28:07;;;;;;;;;;;;;;;5.73;79.45;98983.69;5061333;28;20392;-78
2024/01/25 02:30:32;;;;;;;;;;;;;;;5.65;80.56;98990.41;5039215;28;19912;-79
2024/01/25 02:32:57;;;;;;;;;;;;;;;5.50;82.69;98983.38;5070935;28;19920;-78
2024/01/25 02:35:23;;;;;;;;;;;;;;;5.40;85.27;98989.69;5039244;28;19939;-78
2024/01/25 02:37:50;;;;;;;;;;;;;;;5.40;86.01;98983.41;5052877;28;20011;-78
2024/01/25 02:40:15;;;;;;;;;;;;;;;5.35;87.59;98981.88;5053933;28;19913;-78
2024/01/25 02:42:41;;;;;;;;;;;;;;;5.53;87.05;98974.38;5042719;28;20299;-78
2024/01/25 02:45:06;;;;;;;;;;;;;;;5.67;86.51;98963.34;5052754;28;19918;-78
2024/01/25 02:47:31;;;;;;;;;;;;;;;5.72;85.03;98943.00;5069309;28;19920;-79
2024/01/25 02:49:57;;;;;;;;;;;;;;;5.65;86.03;98948.50;5072137;28;20354;-78
2024/01/25 02:52:22;;;;;;;;;;;;;;;5.60;86.80;98946.97;5074486;28;19947;-78
2024/01/25 02:54:48;;;;;;;;;;;;;;;5.64;86.75;98950.47;5053005;28;19996;-79
2024/01/25 02:57:14;;;;;;;;;;;;;;;5.67;87.50;98955.13;5054359;28;19908;-79
2024/01/25 02:59:39;;;;;;;;;;;;;;;5.75;86.99;98961.38;5057696;28;19995;-79
2024/01/25 03:02:04;;;;;;;;;;;;;;;5.79;87.20;98962.13;5056249;28;19919;-78
2024/01/25 03:04:30;;;;;;;;;;;;;;;5.90;85.99;98959.41;5056320;28;19908;-79
2024/01/25 03:06:55;;;;;;;;;;;;;;;6.01;85.99;98955.44;5056161;28;19916;-80
2024/01/25 03:09:23;;;;;;;;;;;;;;;6.04;85.89;98962.84;5056022;28;19908;-78
2024/01/25 03:11:49;;;;;;;;;;;;;;;6.22;84.74;98962.75;5063690;28;20384;-78
2024/01/25 03:14:14;;;;;;;;;;;;;;;6.32;83.59;98961.91;5057710;28;19913;-78
2024/01/25 03:16:39;;;;;;;;;;;;;;;6.35;83.42;98974.81;5073490;28;19921;-78
2024/01/25 03:19:04;;;;;;;;;;;;;;;6.44;83.47;98952.44;5052445;28;20312;-77
2024/01/25 03:21:30;;;;;;;;;;;;;;;6.57;82.93;98947.25;5036075;28;19955;-78
2024/01/25 03:23:55;;;;;;;;;;;;;;;6.70;82.67;98953.78;5053940;28;19916;-77
2024/01/25 03:26:20;;;;;;;;;;;;;;;6.92;81.43;98957.94;5045530;28;20007;-79
2024/01/25 03:28:46;;;;;;;;;;;;;;;6.95;80.47;98960.66;5042839;28;19918;-78
2024/01/25 03:31:11;;;;;;;;;;;;;;;7.03;80.29;98972.38;5064339;28;19912;-78
2024/01/25 03:33:36;;;;;;;;;;;;;;;7.33;75.65;98971.69;5069428;28;19908;-78
2024/01/25 03:36:02;;;;;;;;;;;;;;;7.33;74.53;98964.22;5064404;28;20399;-78
2024/01/25 03:38:28;;;;;;;;;;;;;;;7.28;73.65;98944.66;5035581;28;19927;-77
2024/01/25 03:40:54;;;;;;;;;;;;;;;7.24;73.83;98933.69;5045036;28;19912;-77
2024/01/25 03:43:19;;;;;;;;;;;;;;;7.22;73.90;98944.31;5070378;28;19924;-77
2024/01/25 03:45:44;;;;;;;;;;;;;;;7.07;75.27;98900.91;5044816;28;19912;-78
2024/01/25 03:48:10;;;;;;;;;;;;;;;7.23;74.65;98907.38;5073474;28;19912;-78
2024/01/25 03:50:35;;;;;;;;;;;;;;;7.33;74.38;98936.75;5055385;28;20402;-79
2024/01/25 03:53:00;;;;;;;;;;;;;;;7.26;74.41;98909.34;5057737;28;19916;-77
2024/01/25 03:55:26;;;;;;;;;;;;;;;7.18;75.45;98956.50;5044017;28;19909;-78
2024/01/25 03:57:51;;;;;;;;;;;;;;;7.21;75.12;98959.25;5060014;28;19920;-78
2024/01/25 04:00:16;;;;;;;;;;;;;;;7.11;76.32;98946.41;5064624;28;19916;-78
2024/01/25 04:02:42;;;;;;;;;;;;;;;7.03;77.72;98950.38;5034543;28;19939;-78
2024/01/25 04:05:07;;;;;;;;;;;;;;;7.03;77.85;98949.59;5061539;28;19937;-78
2024/01/25 04:07:32;;;;;;;;;;;;;;;7.10;77.54;98977.03;5040241;28;20365;-79
2024/01/25 04:09:58;;;;;;;;;;;;;;;7.21;77.62;98986.72;5061119;28;19908;-78
2024/01/25 04:12:24;;;;;;;;;;;;;;;7.30;77.68;98969.75;5072843;28;19912;-78
2024/01/25 04:14:50;;;;;;;;;;;;;;;7.35;76.76;98961.84;5072924;28;20401;-79
2024/01/25 04:17:15;;;;;;;;;;;;;;;7.40;76.32;98948.84;5072581;28;19916;-79
2024/01/25 04:19:40;;;;;;;;;;;;;;;7.39;76.62;98950.03;5065128;28;19917;-77
2024/01/25 04:22:06;;;;;;;;;;;;;;;7.28;77.63;98953.69;5054561;28;19920;-77
2024/01/25 04:24:31;;;;;;;;;;;;;;;7.20;79.49;98956.91;5076798;28;19916;-77
2024/01/25 04:26:56;;;;;;;;;;;;;;;7.34;79.81;98954.81;5074949;28;20358;-78
2024/01/25 04:29:21;;;;;;;;;;;;;;;7.68;81.63;98945.78;5047148;28;19912;-78
2024/01/25 04:31:48;;;;;;;;;;;;;;;8.08;81.87;98947.63;5065795;28;20434;-78
2024/01/25 04:34:13;;;;;;;;;;;;;;;8.54;79.01;98913.19;5060105;28;20398;-79
2024/01/25 04:36:39;;;;;;;;;;;;;;;8.80;76.60;98889.53;5059027;28;19917;-77
2024/01/25 04:39:04;;;;;;;;;;;;;;;8.73;76.99;98882.19;5054313;28;19920;-78
2024/01/25 04:41:29;;;;;;;;;;;;;;;8.58;78.42;98908.38;5072281;28;20036;-79
2024/01/25 04:43:55;;;;;;;;;;;;;;;8.77;77.96;98920.66;5070837;28;19970;-78
2024/01/25 04:46:20;;;;;;;;;;;;;;;8.92;76.56;98922.75;5071552;28;19917;-78
2024/01/25 04:48:46;;;;;;;;;;;;;;;9.11;75.37;98912.19;5034248;28;19981;-77
2024/01/25 04:51:18;;;;;;;;;;;;;;;9.15;74.87;98897.19;5065443;28;20013;-76
2024/01/25 04:53:43;;;;;;;;;;;;;;;9.21;74.97;98912.03;5068155;28;19947;-77
2024/01/25 04:56:09;;;;;;;;;;;;;;;9.26;72.37;98913.50;5040524;28;20397;-77
2024/01/25 04:58:34;;;;;;;;;;;;;;;9.23;71.97;98917.09;5071857;28;19999;-78
2024/01/25 05:01:00;;;;;;;;;;;;;;;9.03;74.01;98894.25;5040719;28;19916;-76
2024/01/25 05:03:25;;;;;;;;;;;;;;;8.95;75.69;98894.38;5053934;28;19912;-78
2024/01/25 05:05:50;;;;;;;;;;;;;;;9.12;74.20;98898.00;5071656;28;19908;-78
2024/01/25 05:08:16;;;;;;;;;;;;;;;9.52;71.75;98893.31;5053382;28;19916;-76
2024/01/25 05:10:41;;;;;;;;;;;;;;;9.61;70.00;98888.00;5053042;28;19909;-78
2024/01/25 05:13:07;;;;;;;;;;;;;;;9.57;70.31;98901.09;5033133;28;19908;-77
2024/01/25 05:15:32;;;;;;;;;;;;;;;9.60;70.38;98907.72;5047038;28;19981;-76
2024/01/25 05:17:57;;;;;;;;;;;;;;;9.60;70.08;98913.25;5040387;28;19971;-77
2024/01/25 05:20:22;;;;;;;;;;;;;;;9.58;69.40;98910.94;5053347;28;19916;-77
2024/01/25 05:22:48;;;;;;;;;;;;;;;9.62;68.76;98908.09;5051409;28;20351;-77
2024/01/25 05:25:13;;;;;;;;;;;;;;;9.61;69.03;98903.78;5051740;28;19924;-78
2024/01/25 05:27:38;;;;;;;;;;;;;;;9.54;69.64;98920.44;5047152;28;19912;-77
2024/01/25 05:30:04;;;;;;;;;;;;;;;9.58;69.32;98916.44;5046617;28;19912;-78
2024/01/25 05:32:30;;;;;;;;;;;;;;;9.53;69.23;98927.16;5058374;28;19935;-77
2024/01/25 05:34:55;;;;;;;;;;;;;;;9.49;68.14;98927.25;5071056;28;19909;-77
2024/01/25 05:37:20;;;;;;;;;;;;;;;9.52;67.96;98931.94;5058166;28;19908;-77
2024/01/25 05:39:46;;;;;;;;;;;;;;;9.52;67.70;98937.44;5071261;28;19965;-77
2024/01/25 05:42:11;;;;;;;;;;;;;;;9.64;66.11;98934.06;5071219;28;19997;-77
2024/01/25 05:44:36;;;;;;;;;;;;;;;9.72;64.95;98934.66;5053201;28;19909;-77
2024/01/25 05:47:02;;;;;;;;;;;;;;;9.75;63.89;98942.91;5047294;28;20003;-78
2024/01/25 05:49:27;;;;;;;;;;;;;;;9.66;66.31;98959.22;5063752;28;19916;-77
2024/01/25 05:51:52;;;;;;;;;;;;;;;9.58;66.04;98960.59;5057382;28;19908;-77
2024/01/25 05:54:17;;;;;;;;;;;;;;;9.59;66.13;98969.59;5041233;28;20033;-77
2024/01/25 05:56:43;;;;;;;;;;;;;;;9.50;65.92;98959.16;5033151;28;19959;-78
2024/01/25 05:59:08;;;;;;;;;;;;;;;9.55;64.30;98963.38;5033302;28;20000;-78
2024/01/25 06:01:33;;;;;;;;;;;;;;;9.56;64.17;98964.94;5033067;28;19944;-77
2024/01/25 06:03:59;;;;;;;;;;;;;;;9.57;64.68;98969.28;5063180;28;19912;-79
2024/01/25 06:06:24;;;;;;;;;;;;;;;9.52;64.84;98959.50;5053016;28;19931;-76
2024/01/25 06:08:49;;;;;;;;;;;;;;;9.56;63.75;98949.19;5059200;28;19913;-77
2024/01/25 06:11:15;;;;;;;;;;;;;;;9.65;64.08;98962.41;5038135;28;20425;-77
2024/01/25 06:13:40;;;;;;;;;;;;;;;9.57;64.24;98967.28;5041393;28;19924;-77
2024/01/25 06:16:06;;;;;;;;;;;;;;;9.57;63.50;98970.06;5068890;28;19919;-79
2024/01/25 06:18:31;;;;;;;;;;;;;;;9.50;63.55;98974.91;5052767;28;19943;-77
2024/01/25 06:20:56;;;;;;;;;;;;;;;9.54;62.37;98981.91;5070625;28;20017;-77
2024/01/25 06:23:22;;;;;;;;;;;;;;;9.55;61.62;98991.75;5071041;28;19916;-77
2024/01/25 06:25:47;;;;;;;;;;;;;;;9.52;61.54;99003.66;5037503;28;19905;-77
2024/01/25 06:28:13;;;;;;;;;;;;;;;9.49;60.12;98990.69;5054859;28;19909;-77
2024/01/25 06:30:38;;;;;;;;;;;;;;;9.55;60.06;99002.78;5073213;28;19931;-76
2024/01/25 06:33:04;;;;;;;;;;;;;;;9.52;60.14;99017.44;5062763;28;19991;-77
2024/01/25 06:35:29;;;;;;;;;;;;;;;9.56;59.15;99014.59;5041417;28;19919;-79
2024/01/25 06:37:54;;;;;;;;;;;;;;;9.60;58.50;99023.59;5045560;28;19920;-77
2024/01/25 06:40:20;;;;;;;;;;;;;;;9.61;58.29;99025.94;5049886;28;19916;-78
2024/01/25 06:42:45;;;;;;;;;;;;;;;9.68;57.95;99013.97;5065495;28;19916;-76
2024/01/25 06:45:10;;;;;;;;;;;;;;;9.64;57.37;99016.03;5056818;28;20388;-77
2024/01/25 06:47:36;;;;;;;;;;;;;;;9.67;57.66;99021.47;5056610;28;19998;-77
2024/01/25 06:50:01;;;;;;;;;;;;;;;9.68;57.20;99012.00;5061132;28;19915;-76
2024/01/25 06:52:26;;;;;;;;;;;;;;;9.70;57.49;99025.38;5074762;28;19931;-77
2024/01/25 06:54:52;;;;;;;;;;;;;;;9.69;56.18;99021.06;5073958;28;19919;-77
2024/01/25 06:57:17;;;;;;;;;;;;;;;9.73;56.48;99013.50;5046062;28;19912;-78
2024/01/25 06:59:42;;;;;;;;;;;;;;;9.70;56.51;99026.16;5071393;28;20006;-78
2024/01/25 07:02:09;;;;;;;;;;;;;;;9.71;56.77;99024.16;5056141;28;19966;-78
2024/01/25 07:04:34;;;;;;;;;;;;;;;9.78;55.57;99019.28;5074342;28;19912;-78
2024/01/25 07:07:00;;;;;;;;;;;;;;;9.74;56.56;99013.06;5073838;28;19969;-77
2024/01/25 07:09:25;;;;;;;;;;;;;;;9.81;55.39;99020.44;5042675;28;19912;-77
2024/01/25 07:11:50;;;;;;;;;;;;;;;9.83;54.87;99015.25;5065809;28;19915;-76
2024/01/25 07:14:16;;;;;;;;;;;;;;;9.91;55.92;99007.63;5042492;28;19908;-77
2024/01/25 07:16:41;;;;;;;;;;;;;;;9.96;55.45;99015.41;5073928;28;19923;-77
2024/01/25 07:19:06;;;;;;;;;;;;;;;10.01;55.11;99029.50;5042608;28;19917;-76
2024/01/25 07:21:32;;;;;;;;;;;;;;;10.04;55.36;99031.41;5046143;28;19955;-77
2024/01/25 07:24:02;;;;;;;;;;;;;;;10.09;55.28;99046.69;5070247;28;19912;-77
2024/01/25 07:26:27;;;;;;;;;;;;;;;10.11;54.98;99042.31;5074020;28;20373;-78
2024/01/25 07:28:57;;;;;;;;;;;;;;;10.13;54.41;99047.41;5060662;28;20060;-76
2024/01/25 07:31:23;;;;;;;;;;;;;;;10.19;53.44;99034.69;5058786;28;19944;-76
2024/01/25 07:33:48;;;;;;;;;;;;;;;10.20;54.12;99037.03;5060206;28;19935;-76
2024/01/25 07:36:13;;;;;;;;;;;;;;;10.22;52.84;99050.41;5076617;28;20315;-76
2024/01/25 07:38:39;;;;;;;;;;;;;;;10.33;54.05;99050.97;5055278;28;19934;-77
2024/01/25 07:41:04;;;;;;;;;;;;;;;10.36;52.67;99068.69;5073297;28;20364;-76
2024/01/25 07:43:29;;;;;;;;;;;;;;;10.49;52.77;99077.88;5055346;28;19912;-77
2024/01/25 07:45:55;;;;;;;;;;;;;;;10.62;51.51;99076.00;5073361;28;19908;-76
2024/01/25 07:48:20;;;;;;;;;;;;;;;10.76;51.58;99069.41;5055035;28;19916;-77
2024/01/25 07:50:45;;;;;;;;;;;;;;;10.91;51.04;99070.66;5063247;28;19999;-77
2024/01/25 07:53:12;;;;;;;;;;;;;;;11.00;50.94;99065.31;5069599;28;19911;-78
2024/01/25 07:55:37;;;;;;;;;;;;;;;11.09;49.35;99062.69;5055140;28;19950;-77
2024/01/25 07:58:02;;;;;;;;;;;;;;;11.19;49.36;99060.91;5041852;28;19939;-77
2024/01/25 08:00:28;;;;;;;;;;;;;;;11.24;50.13;99071.44;5055053;28;19924;-77
2024/01/25 08:02:53;;;;;;;;;;;;;;;11.35;48.67;99078.28;5052147;28;19920;-78
2024/01/25 08:05:18;;;;;;;;;;;;;;;11.39;47.79;99087.25;5052762;28;19938;-77
2024/01/25 08:07:45;;;;;;;;;;;;;;;11.57;47.82;99086.06;5053092;28;19908;-76
2024/01/25 08:10:10;;;;;;;;;;;;;;;11.57;47.74;99094.38;5052995;28;19908;-77
2024/01/25 08:12:35;;;;;;;;;;;;;;;11.59;46.70;99109.31;5052766;28;19970;-76
2024/01/25 08:15:01;;;;;;;;;;;;;;;11.68;46.99;99101.19;5044055;28;20032;-77
2024/01/25 08:17:26;;;;;;;;;;;;;;;11.95;45.75;99102.91;5054307;28;21354;-76
2024/01/25 08:19:51;;;;;;;;;;;;;;;12.03;46.10;99109.81;5054305;28;19924;-77
2024/01/25 08:22:17;;;;;;;;;;;;;;;12.23;45.41;99111.25;5056507;28;19954;-78
2024/01/25 08:24:43;;;;;;;;;;;;;;;12.21;45.67;99119.19;5062028;28;20292;-79
2024/01/25 08:27:08;;;;;;;;;;;;;;;12.13;42.70;99105.97;5051646;28;19918;-78
2024/01/25 08:29:34;;;;;;;;;;;;;;;12.22;43.51;99115.22;5062180;28;19919;-78
2024/01/25 08:31:59;;;;;;;;;;;;;;;12.23;42.48;99110.47;5051761;28;20007;-77
2024/01/25 08:34:24;;;;;;;;;;;;;;;12.26;43.32;99130.94;5052376;28;20289;-77
2024/01/25 08:36:50;;;;;;;;;;;;;;;12.06;42.34;99123.56;5050280;28;20442;-78
2024/01/25 08:39:15;;;;;;;;;;;;;;;12.09;44.79;99117.16;5072292;28;20380;-78
2024/01/25 08:41:42;;;;;;;;;;;;;;;12.20;43.65;99120.41;5056444;28;20312;-77
2024/01/25 08:44:07;;;;;;;;;;;;;;;12.24;42.92;99123.84;5052292;28;20392;-78
2024/01/25 08:46:33;;;;;;;;;;;;;;;12.09;44.02;99131.00;5049551;28;19912;-77
2024/01/25 08:48:58;;;;;;;;;;;;;;;12.07;43.31;99136.19;5053958;28;20399;-78
2024/01/25 08:51:23;;;;;;;;;;;;;;;12.20;43.57;99137.03;5057157;28;19912;-79
2024/01/25 08:53:50;;;;;;;;;;;;;;;12.20;42.78;99139.03;5060066;28;19947;-78
2024/01/25 08:56:15;;;;;;;;;;;;;;;12.20;44.02;99141.78;5072045;28;20035;-78
2024/01/25 08:58:41;;;;;;;;;;;;;;;12.18;44.42;99161.63;5053923;28;20007;-78
2024/01/25 09:01:06;;;;;;;;;;;;;;;12.12;43.54;99151.50;5071679;28;19927;-77
2024/01/25 09:03:31;;;;;;;;;;;;;;;11.98;42.86;99166.50;5071682;28;19977;-78
2024/01/25 09:05:57;;;;;;;;;;;;;;;11.82;44.61;99155.44;5070743;28;19920;-77
2024/01/25 09:08:22;;;;;;;;;;;;;;;11.89;45.31;99169.09;5041189;28;19912;-79
2024/01/25 09:10:47;;;;;;;;;;;;;;;11.91;44.74;99157.59;5071684;28;19965;-78
2024/01/25 09:13:13;;;;;;;;;;;;;;;12.04;43.48;99144.59;5064529;28;19923;-78
2024/01/25 09:15:39;;;;;;;;;;;;;;;12.13;43.64;99147.50;5033868;28;20316;-79
2024/01/25 09:18:04;;;;;;;;;;;;;;;12.27;43.58;99146.38;5058710;28;19974;-77
2024/01/25 09:20:30;;;;;;;;;;;;;;;12.24;44.14;99148.00;5053109;28;19928;-77
2024/01/25 09:22:55;;;;;;;;;;;;;;;12.20;41.70;99142.56;5053722;28;20417;-78
2024/01/25 09:25:20;;;;;;;;;;;;;;;12.26;42.35;99136.50;5071143;28;19912;-78
2024/01/25 09:27:46;;;;;;;;;;;;;;;12.26;42.11;99125.41;5064747;28;19944;-77
2024/01/25 09:30:11;;;;;;;;;;;;;;;12.33;42.37;99133.53;5051676;28;19930;-78
2024/01/25 09:32:36;;;;;;;;;;;;;;;12.30;43.42;99120.56;5071384;28;19916;-77
2024/01/25 09:35:02;;;;;;;;;;;;;;;12.35;43.82;99123.59;5053362;28;19919;-77
2024/01/25 09:37:27;;;;;;;;;;;;;;;12.52;44.24;99127.06;5071122;28;19911;-78
2024/01/25 09:39:53;;;;;;;;;;;;;;;12.48;43.42;99129.16;5053190;28;19959;-77
2024/01/25 09:42:18;;;;;;;;;;;;;;;12.29;42.87;99119.78;5071516;28;19912;-77
2024/01/25 09:44:44;;;;;;;;;;;;;;;11.95;43.56;99123.06;5053234;28;19909;-78
2024/01/25 09:47:10;;;;;;;;;;;;;;;11.95;43.85;99130.59;5071276;28;19970;-77
2024/01/25 09:49:35;;;;;;;;;;;;;;;11.82;43.21;99119.44;5071039;28;20014;-78
2024/01/25 09:52:03;;;;;;;;;;;;;;;11.70;44.17;99100.75;5053015;28;20395;-78
2024/01/25 09:54:31;;;;;;;;;;;;;;;11.72;43.47;99103.84;5059146;28;19926;-77
2024/01/25 09:56:57;;;;;;;;;;;;;;;11.80;44.05;99110.81;5052982;28;19916;-78
2024/01/25 09:59:22;;;;;;;;;;;;;;;11.85;43.06;99115.81;5058554;28;19916;-78
2024/01/25 10:01:48;;;;;;;;;;;;;;;11.92;41.93;99106.56;5075426;28;20399;-76
2024/01/25 10:04:13;;;;;;;;;;;;;;;12.07;42.35;99102.19;5075117;28;20300;-78
2024/01/25 10:06:39;;;;;;;;;;;;;;;12.17;42.10;99101.91;5049855;28;19948;-78
2024/01/25 10:09:04;;;;;;;;;;;;;;;12.12;42.06;99080.25;5055139;28;20001;-77
2024/01/25 10:11:35;;;;;;;;;;;;;;;12.12;40.55;99079.47;5044431;28;19993;-78
2024/01/25 10:14:01;;;;;;;;;;;;;;;12.28;42.61;99084.22;5061681;28;19908;-77
2024/01/25 10:16:26;;;;;;;;;;;;;;;12.41;42.80;99077.50;5066559;28;19913;-77
2024/01/25 10:18:52;;;;;;;;;;;;;;;12.52;41.83;99079.94;5056344;28;20019;-76
2024/01/25 10:21:18;;;;;;;;;;;;;;;12.37;40.81;99082.34;5074958;28;19959;-78
2024/01/25 10:23:44;;;;;;;;;;;;;;;12.36;42.00;99074.47;5055182;28;19912;-78
2024/01/25 10:26:10;;;;;;;;;;;;;;;12.40;41.83;99083.47;5063405;28;19915;-77
2024/01/25 10:28:35;;;;;;;;;;;;;;;12.57;41.97;99073.84;5073485;28;19916;-76
2024/01/25 10:31:03;;;;;;;;;;;;;;;12.54;41.79;99069.19;5037093;28;19912;-77
2024/01/25 10:33:29;;;;;;;;;;;;;;;12.43;41.43;99080.59;5054681;28;19943;-77
2024/01/25 10:36:01;;;;;;;;;;;;;;;12.22;40.04;99076.44;5055268;28;19912;-76
2024/01/25 10:38:27;;;;;;;;;;;;;;;12.33;41.46;99080.91;5057158;28;20401;-77
2024/01/25 10:40:53;;;;;;;;;;;;;;;12.43;41.14;99063.19;5048256;28;20006;-76
2024/01/25 10:43:19;;;;;;;;;;;;;;;12.46;41.43;99054.78;5056885;28;19916;-77
2024/01/25 10:45:45;;;;;;;;;;;;;;;12.22;42.01;99042.41;5056455;28;20350;-78
2024/01/25 10:48:10;;;;;;;;;;;;;;;12.13;41.43;99051.34;5072766;28;19920;-77
2024/01/25 10:50:36;;;;;;;;;;;;;;;12.16;40.88;99050.50;5054507;28;19912;-77
2024/01/25 10:53:02;;;;;;;;;;;;;;;12.16;42.57;99050.50;5036631;28;20395;-77
2024/01/25 10:55:27;;;;;;;;;;;;;;;12.21;43.24;99040.84;5044983;28;19966;-77
2024/01/25 10:57:53;;;;;;;;;;;;;;;11.90;42.08;99035.00;5056271;28;19920;-76
2024/01/25 11:00:18;;;;;;;;;;;;;;;11.81;42.04;99037.63;5065656;28;20277;-78
2024/01/25 11:02:47;;;;;;;;;;;;;;;11.73;42.11;99022.38;5069308;28;20355;-76
2024/01/25 11:05:13;;;;;;;;;;;;;;;11.72;42.95;99037.44;5065437;28;19909;-78
2024/01/25 11:07:44;;;;;;;;;;;;;;;11.54;42.05;99024.06;5051655;28;20458;-78
2024/01/25 11:10:37;;;;;;;;;;;;;;;11.46;43.22;99027.44;5046227;28;19908;-77
2024/01/25 11:13:03;;;;;;;;;;;;;;;11.36;43.13;99029.25;5041337;28;19924;-77
2024/01/25 11:15:33;;;;;;;;;;;;;;;11.22;42.20;99041.44;5074000;28;19912;-76
2024/01/25 11:17:59;;;;;;;;;;;;;;;11.29;43.49;99043.28;5073850;28;19918;-77
2024/01/25 11:20:26;;;;;;;;;;;;;;;11.39;42.09;99037.47;5055532;28;19967;-78
2024/01/25 11:23:11;;;;;;;;;;;;;;;11.47;43.44;99043.59;5048560;28;19908;-77
2024/01/25 11:25:37;;;;;;;;;;;;;;;11.40;41.36;99039.03;5053209;28;19948;-77
2024/01/25 11:28:04;;;;;;;;;;;;;;;11.52;43.68;99043.06;5053473;28;19968;-78
2024/01/25 11:30:30;;;;;;;;;;;;;;;11.56;43.02;99038.25;5070868;28;19913;-77
2024/01/25 11:32:56;;;;;;;;;;;;;;;11.52;42.37;99045.84;5073739;28;19909;-77
2024/01/25 11:35:21;;;;;;;;;;;;;;;11.45;43.24;99025.91;5060125;28;19908;-77
2024/01/25 11:37:47;;;;;;;;;;;;;;;11.48;42.33;99025.00;5063333;28;20382;-76
2024/01/25 11:40:14;;;;;;;;;;;;;;;11.79;42.77;99026.19;5038746;28;19920;-77
2024/01/25 11:42:40;;;;;;;;;;;;;;;11.99;41.80;99035.16;5063423;28;19952;-77
2024/01/25 11:45:06;;;;;;;;;;;;;;;12.05;41.87;99005.69;5070230;28;19963;-78
2024/01/25 11:47:31;;;;;;;;;;;;;;;12.28;41.35;99006.63;5073016;28;20357;-78
2024/01/25 11:49:56;;;;;;;;;;;;;;;12.50;41.82;99002.00;5056574;28;19913;-77
2024/01/25 11:52:22;;;;;;;;;;;;;;;12.34;40.04;99004.88;5053282;28;20409;-77
2024/01/25 11:54:47;;;;;;;;;;;;;;;12.22;40.66;99011.94;5069609;28;19908;-77
2024/01/25 11:57:12;;;;;;;;;;;;;;;12.24;39.44;99007.50;5055563;28;19920;-79
2024/01/25 11:59:38;;;;;;;;;;;;;;;12.36;39.87;99007.97;5051209;28;19909;-76
2024/01/25 12:02:03;;;;;;;;;;;;;;;12.52;40.95;99005.13;5052855;28;19915;-76
2024/01/25 12:04:28;;;;;;;;;;;;;;;12.44;40.09;99012.88;5052095;28;20277;-78
2024/01/25 12:06:54;;;;;;;;;;;;;;;12.36;40.49;99019.03;5044819;28;20311;-78
2024/01/25 12:09:20;;;;;;;;;;;;;;;12.29;41.29;99024.81;5038605;28;20344;-77
2024/01/25 12:11:49;;;;;;;;;;;;;;;12.02;40.45;99016.88;5055033;28;20008;-78
2024/01/25 12:14:16;;;;;;;;;;;;;;;11.93;40.96;99003.66;5072783;28;20406;-78
2024/01/25 12:16:41;;;;;;;;;;;;;;;11.89;41.28;98997.44;5043211;28;19951;-79
2024/01/25 12:19:07;;;;;;;;;;;;;;;11.88;42.29;98990.34;5056931;28;19944;-78
2024/01/25 12:21:36;;;;;;;;;;;;;;;11.93;42.49;98992.59;5061686;28;19913;-77
2024/01/25 12:24:01;;;;;;;;;;;;;;;11.94;42.59;98980.28;5022799;28;19916;-76
2024/01/25 12:26:27;;;;;;;;;;;;;;;11.88;42.12;98984.03;5072649;28;19908;-77
2024/01/25 12:28:52;;;;;;;;;;;;;;;11.77;41.31;99001.72;5054526;28;20380;-78
2024/01/25 12:31:17;;;;;;;;;;;;;;;11.67;42.14;98985.38;5042696;28;19925;-77
2024/01/25 12:33:43;;;;;;;;;;;;;;;11.59;41.91;98970.16;5052534;28;19919;-78
2024/01/25 12:36:09;;;;;;;;;;;;;;;11.59;41.46;98956.31;5052303;28;19958;-77
2024/01/25 12:38:35;;;;;;;;;;;;;;;11.74;41.76;98963.84;5047858;28;19978;-77
2024/01/25 12:41:00;;;;;;;;;;;;;;;11.73;42.48;98958.72;5063780;28;19916;-77
2024/01/25 12:43:25;;;;;;;;;;;;;;;11.69;42.10;98960.81;5036290;28;19913;-77
2024/01/25 12:45:51;;;;;;;;;;;;;;;11.63;41.85;98954.25;5063207;28;19935;-77